North Lima, Ohio
Current Conditions -  °F | °C
As of 4:56 AM on Sunday 25 Jan 2015 (Local Time) from KUCP Reporting Station
Haze Haze  
Wind Chill: 27°   Ceiling: 900
Heat Index: 33°   Visibility: 5mi
Dew Point: 31°   Wind: 7mph
Humidity: 93%   Direction: 230°SW
Pressure: 29.74"   Gusts: NA
Location:  40.95°N, 80.66°W
Report Text: KUCP 250956Z AUTO 23006KT 5SM BR OVC009 01/M01 A2974 RMK AO2 TSNO T00051005 UPE49 P0000 SLP096 $
Loading
Personal Weather Stations






























Interactive Weather Map New forecast layout! Learn more

10-Day Weather Forecast

Advertisements
Track Severe Weather on mobile